createdAt,value
2023-01-22T00:01:22.938Z,99221.78
2023-01-22T00:06:47.860Z,99230.56
2023-01-22T00:12:14.787Z,99232.28
2023-01-22T00:17:44.774Z,99230.66
2023-01-22T00:23:09.779Z,99235.94
2023-01-22T00:28:37.811Z,99228.22
2023-01-22T00:34:05.841Z,99240.38
2023-01-22T00:39:32.177Z,99235.81
2023-01-22T00:44:56.865Z,99238.44
2023-01-22T00:50:25.775Z,99239.25
2023-01-22T00:55:59.819Z,99239.16
2023-01-22T01:01:26.825Z,99240.03
2023-01-22T01:06:55.033Z,99237.19
2023-01-22T01:12:18.849Z,99235.31
2023-01-22T01:17:44.846Z,99234.75
2023-01-22T01:23:11.803Z,99228.53
2023-01-22T01:28:37.827Z,99231.16
2023-01-22T01:34:03.809Z,99227.44
2023-01-22T01:39:31.834Z,99221.38
2023-01-22T01:44:58.854Z,99226.72
2023-01-22T01:50:23.839Z,99221.50
2023-01-22T01:55:51.857Z,99225.94
2023-01-22T02:01:20.833Z,99227.66
2023-01-22T02:06:47.938Z,99233.81
2023-01-22T02:12:17.026Z,99246.13
2023-01-22T02:17:41.994Z,99245.97
2023-01-22T02:23:11.060Z,99251.47
2023-01-22T02:28:35.868Z,99253.28
2023-01-22T02:34:00.818Z,99263.78
2023-01-22T02:39:29.823Z,99268.09
2023-01-22T02:44:56.867Z,99263.72
2023-01-22T02:50:29.837Z,99257.44
2023-01-22T02:55:59.246Z,99256.72
2023-01-22T03:01:27.891Z,99252.34
2023-01-22T03:06:53.839Z,99247.84
2023-01-22T03:12:22.827Z,99242.59
2023-01-22T03:18:00.139Z,99248.59
2023-01-22T03:23:24.848Z,99241.63
2023-01-22T03:28:53.146Z,99241.47
2023-01-22T03:34:17.883Z,99238.81
2023-01-22T03:39:45.187Z,99238.03
2023-01-22T03:45:24.876Z,99239.91
2023-01-22T03:50:50.142Z,99240.63
2023-01-22T03:56:15.885Z,99249.69
2023-01-22T04:01:44.193Z,99257.63
2023-01-22T04:07:10.875Z,99272.50
2023-01-22T04:12:35.872Z,99257.63
2023-01-22T04:18:06.008Z,99271.72
2023-01-22T04:23:51.188Z,99276.16
2023-01-22T04:29:16.212Z,99279.06
2023-01-22T04:34:43.909Z,99291.25
2023-01-22T04:40:14.870Z,99288.75
2023-01-22T04:45:40.890Z,99290.53
2023-01-22T04:51:08.011Z,99286.31
2023-01-22T04:56:32.905Z,99299.53
2023-01-22T05:01:59.940Z,99300.53
2023-01-22T05:07:27.920Z,99309.41
2023-01-22T05:12:52.923Z,99313.78
2023-01-22T05:18:24.951Z,99324.34
2023-01-22T05:24:05.402Z,99331.41
2023-01-22T05:29:33.934Z,99328.72
2023-01-22T05:35:21.920Z,99333.00
2023-01-22T05:40:53.341Z,99339.09
2023-01-22T05:46:27.977Z,99336.66
2023-01-22T05:52:11.080Z,99347.28
2023-01-22T05:57:41.918Z,99347.38
2023-01-22T06:03:09.926Z,99354.47
2023-01-22T06:08:41.918Z,99352.75
2023-01-22T06:14:10.904Z,99343.94
2023-01-22T06:19:35.966Z,99346.69
2023-01-22T06:25:00.942Z,99350.31
2023-01-22T06:30:47.989Z,99360.88
2023-01-22T06:36:13.935Z,99368.03
2023-01-22T06:41:40.248Z,99370.69
2023-01-22T06:47:09.957Z,99376.00
2023-01-22T06:52:35.002Z,99383.03
2023-01-22T06:57:59.928Z,99387.41
2023-01-22T07:03:27.949Z,99396.34
2023-01-22T07:08:52.973Z,99407.72
2023-01-22T07:14:28.900Z,99413.94
2023-01-22T07:20:03.943Z,99424.50
2023-01-22T07:25:28.977Z,99427.09
2023-01-22T07:30:56.099Z,99429.69
2023-01-22T07:36:23.981Z,99443.69
2023-01-22T07:41:49.048Z,99443.75
2023-01-22T07:47:14.012Z,99446.34
2023-01-22T07:52:41.970Z,99457.78
2023-01-22T07:58:15.967Z,99475.31
2023-01-22T08:03:50.103Z,99473.47
2023-01-22T08:09:21.996Z,99475.19
2023-01-22T08:14:47.298Z,99472.56
2023-01-22T08:20:14.046Z,99472.56
2023-01-22T08:25:42.360Z,99480.31
2023-01-22T08:31:11.326Z,99495.25
2023-01-22T08:36:40.977Z,99493.41
2023-01-22T08:42:09.169Z,99496.78
2023-01-22T08:47:34.086Z,99497.72
2023-01-22T08:52:58.023Z,99501.88
2023-01-22T08:58:26.988Z,99506.19
2023-01-22T09:03:50.965Z,99511.47
2023-01-22T09:09:17.000Z,99522.94
2023-01-22T09:14:44.007Z,99529.16
2023-01-22T09:20:09.011Z,99531.81
2023-01-22T09:25:35.976Z,99541.53
2023-01-22T09:31:04.415Z,99539.69
2023-01-22T09:36:31.015Z,99545.91
2023-01-22T09:42:02.187Z,99549.34
2023-01-22T09:47:33.037Z,99563.25
2023-01-22T09:53:01.458Z,99548.31
2023-01-22T09:58:30.047Z,99557.78
2023-01-22T10:04:02.992Z,99557.63
2023-01-22T10:09:30.980Z,99563.69
2023-01-22T10:14:57.001Z,99556.38
2023-01-22T10:20:28.074Z,99555.34
2023-01-22T10:25:54.080Z,99536.69
2023-01-22T10:31:18.098Z,99539.34
2023-01-22T10:36:46.494Z,99539.94
2023-01-22T10:42:17.034Z,99543.31
2023-01-22T10:47:42.048Z,99541.47
2023-01-22T10:53:11.072Z,99528.84
2023-01-22T10:58:41.050Z,99522.63
2023-01-22T11:04:05.016Z,99520.78
2023-01-22T11:09:38.547Z,99519.84
2023-01-22T11:15:06.031Z,99509.25
2023-01-22T11:20:37.003Z,99515.56
2023-01-22T11:26:12.017Z,99513.75
2023-01-22T11:31:49.286Z,99524.34
2023-01-22T11:37:20.040Z,99513.63
2023-01-22T11:43:09.003Z,99518.13
2023-01-22T11:48:47.077Z,99517.06
2023-01-22T11:54:40.039Z,99516.13
2023-01-22T12:00:43.041Z,99534.22
2023-01-22T12:06:20.312Z,99534.47
2023-01-22T12:12:01.036Z,99520.63
2023-01-22T12:17:45.060Z,99527.59
2023-01-22T12:23:15.050Z,99538.25
2023-01-22T12:28:45.081Z,99553.41
2023-01-22T12:34:18.076Z,99548.13
2023-01-22T12:39:46.064Z,99557.88
2023-01-22T12:45:19.074Z,99558.84
2023-01-22T12:51:05.154Z,99556.34
2023-01-22T12:56:39.066Z,99555.47
2023-01-22T13:02:15.114Z,99557.13
2023-01-22T13:07:48.122Z,99548.41
2023-01-22T13:13:16.124Z,99553.75
2023-01-22T13:18:49.088Z,99557.75
2023-01-22T13:24:20.076Z,99567.13
2023-01-22T13:29:49.403Z,99563.97
2023-01-22T13:35:20.092Z,99560.91
2023-01-22T13:41:14.567Z,99571.88
2023-01-22T13:46:39.139Z,99567.66
2023-01-22T13:52:07.127Z,99567.66
2023-01-22T13:57:38.067Z,99569.59
2023-01-22T14:03:04.199Z,99572.44
2023-01-22T14:08:30.315Z,99575.94
2023-01-22T14:14:00.128Z,99590.22
2023-01-22T14:19:24.105Z,99590.41
2023-01-22T14:24:49.145Z,99606.41
2023-01-22T14:30:17.458Z,99607.34
2023-01-22T14:35:42.104Z,99608.41
2023-01-22T14:41:07.113Z,99618.19
2023-01-22T14:46:35.224Z,99611.16
2023-01-22T14:51:59.120Z,99629.69
2023-01-22T14:57:24.384Z,99624.50
2023-01-22T15:03:03.113Z,99623.53
2023-01-22T15:08:28.099Z,99622.81
2023-01-22T15:13:53.140Z,99630.69
2023-01-22T15:19:21.597Z,99637.75
2023-01-22T15:24:50.135Z,99634.38
2023-01-22T15:30:23.208Z,99636.09
2023-01-22T15:35:56.192Z,99636.09
2023-01-22T15:41:30.158Z,99632.59
2023-01-22T15:46:56.138Z,99630.91
2023-01-22T15:52:24.273Z,99628.22
2023-01-22T15:57:49.129Z,99620.31
2023-01-22T16:03:22.129Z,99629.13
2023-01-22T16:08:52.144Z,99632.72
2023-01-22T16:14:17.180Z,99639.84
2023-01-22T16:19:42.152Z,99642.50
2023-01-22T16:25:10.200Z,99642.56
2023-01-22T16:30:35.234Z,99641.75
2023-01-22T16:41:57.660Z,99646.16
2023-01-22T16:47:26.120Z,99647.97
2023-01-22T16:52:52.159Z,99655.84
2023-01-22T16:58:28.336Z,99667.41
2023-01-22T17:03:53.180Z,99664.75
2023-01-22T17:09:29.205Z,99668.28
2023-01-22T17:15:06.374Z,99678.91
2023-01-22T17:20:31.215Z,99683.38
2023-01-22T17:25:56.226Z,99698.31
2023-01-22T17:31:28.289Z,99703.66
2023-01-22T17:36:54.166Z,99716.97
2023-01-22T17:42:19.188Z,99727.44
2023-01-22T17:47:47.163Z,99741.59
2023-01-22T17:53:11.158Z,99748.66
2023-01-22T17:58:36.212Z,99760.94
2023-01-22T18:04:04.184Z,99768.06
2023-01-22T18:09:30.165Z,99762.69
2023-01-22T18:14:55.543Z,99764.34
2023-01-22T18:20:23.192Z,99775.75
2023-01-22T18:25:48.227Z,99782.78
2023-01-22T18:31:15.309Z,99781.88
2023-01-22T18:36:45.199Z,99788.06
2023-01-22T18:42:10.213Z,99789.81
2023-01-22T18:47:34.221Z,99787.16
2023-01-22T18:53:02.221Z,99801.13
2023-01-22T18:58:37.463Z,99800.22
2023-01-22T19:04:06.227Z,99804.69
2023-01-22T19:09:35.240Z,99805.63
2023-01-22T19:15:00.211Z,99805.63
2023-01-22T19:20:35.338Z,99807.41
2023-01-22T19:26:18.369Z,99807.50
2023-01-22T19:31:45.307Z,99811.91
2023-01-22T19:37:13.433Z,99810.16
2023-01-22T19:42:50.188Z,99822.44
2023-01-22T19:48:16.235Z,99822.50
2023-01-22T19:53:40.429Z,99822.50
2023-01-22T19:59:17.245Z,99826.75
2023-01-22T20:04:44.363Z,99824.75
2023-01-22T20:10:12.273Z,99831.78
2023-01-22T20:15:39.223Z,99834.25
2023-01-22T20:21:05.305Z,99834.28
2023-01-22T20:26:32.216Z,99838.63
2023-01-22T20:32:03.332Z,99848.00
2023-01-22T20:37:28.258Z,99849.88
2023-01-22T20:42:53.271Z,99837.72
2023-01-22T20:48:22.334Z,99836.91
2023-01-22T20:53:48.222Z,99854.44
2023-01-22T20:59:19.249Z,99854.44
2023-01-22T21:04:47.255Z,99851.63
2023-01-22T21:10:11.259Z,99848.91
2023-01-22T21:15:36.282Z,99848.16
2023-01-22T21:21:10.258Z,99850.06
2023-01-22T21:26:39.282Z,99859.81
2023-01-22T21:32:05.222Z,99864.13
2023-01-22T21:37:33.261Z,99867.75
2023-01-22T21:43:10.249Z,99879.03
2023-01-22T21:48:36.319Z,99870.16
2023-01-22T21:54:04.247Z,99875.47
2023-01-22T21:59:29.267Z,99880.84
2023-01-22T22:04:54.270Z,99882.59
2023-01-22T22:10:23.292Z,99892.50
2023-01-22T22:15:49.267Z,99902.28
2023-01-22T22:21:16.289Z,99904.94
2023-01-22T22:26:44.310Z,99910.28
2023-01-22T22:32:09.272Z,99917.34
2023-01-22T22:37:33.292Z,99905.94
2023-01-22T22:43:01.257Z,99921.84
2023-01-22T22:48:26.318Z,99916.59
2023-01-22T22:53:52.342Z,99918.34
2023-01-22T22:59:21.336Z,99921.03
2023-01-22T23:04:46.468Z,99924.56
2023-01-22T23:10:10.284Z,99924.56
2023-01-22T23:15:44.282Z,99931.75
2023-01-22T23:21:13.293Z,99940.50
2023-01-22T23:26:39.309Z,99932.66
2023-01-22T23:32:08.304Z,99933.63
2023-01-22T23:37:33.295Z,99947.72
2023-01-22T23:42:57.288Z,99940.69
2023-01-22T23:48:25.316Z,99951.28
2023-01-22T23:53:51.291Z,99950.44
2023-01-22T23:59:17.282Z,99964.59
